Falls International Airport
KINL : now visible

Airfield :











YOU CAN JOIN US ON...

 
LOGIN :

Register | Disclaimer

   EN    FR    IT 

 









Legend :    VFR   Marginal VFR   IFR   Intensive IFR   Very Intensive IFR
Visi :
Ceiling :
>= 8 km
>= 3000ft
5 to 8 km
1000 to 3000 ft
1500m to 5 km
500 to 1000 ft
800 to 1500m
200 to 500 ft
< 800m
< 200 ft
Symbols :   Thunderstorms  Fog  Heavy snow  Heavy precipitations  Wind > 20 kt






- Airport Elevation : 1185 ft
- IATA code : INL


KINL - Falls International

CURRENT METAR :
  • 180554Z AUTO 29007KT 8SM OVC013 M11/M13 A2977 RMK AO2 SLP105 60001 T11061128 11078 21106 410671106 53004

EXPIRED METARs :
  • 180501Z AUTO 29009KT 10SM OVC011 M10/M12 A2976 RMK AO2 T11001122
  • 180454Z AUTO 30008KT 10SM OVC009 M10/M12 A2976 RMK AO2 SLP102 T11001122
  • 180417Z AUTO 29009KT 9SM OVC008 M09/M12 A2975 RMK AO2 T10941117
  • 180354Z AUTO 30004KT 9SM BKN010 OVC014 M09/M11 A2975 RMK AO2 SNE52 CIG 009V013 SLP101 P0000 T10891111
  • 180333Z AUTO 29007KT 6SM -SN BR BKN010 OVC018 M09/M11 A2975 RMK AO2 CIG 009V013 P0000 T10891106

TAF KINL
Valid from the 18 at 06:00 until the 19 at 06:00 UTC


180535Z 1806/1906 30006KT P6SM -SHSN OVC012
FM181400 30006KT P6SM BKN018
FM182200 32008KT P6SM SCT018
KZMP FIR / North America



MET'MAP, your aeronautical weather chart ! - Copyright ORBIFLY December 2007 - Disclaimer

ORBIFLY MET'MAP TEAM :

Programming & Development : Alexandra Zaïnal
Concept & original design : Baudouin d'Aumeries
Assistance for programming : Marc-Olivier Méhu
Technical & hardware support : Manuel Goepfert

Contact : metmap@orbifly.com




SOURCES & CREDITS :

   NOAA       Earth
Advisory